createdAt,value
2019-03-11T00:00:31.504Z,5.70
2019-03-11T00:01:11.597Z,5.70
2019-03-11T00:01:46.086Z,5.70
2019-03-11T00:02:20.741Z,5.70
2019-03-11T00:02:55.257Z,5.70
2019-03-11T00:03:29.774Z,5.70
2019-03-11T00:04:04.562Z,5.70
2019-03-11T00:04:39.760Z,5.70
2019-03-11T00:05:14.325Z,5.70
2019-03-11T00:05:48.840Z,5.70
2019-03-11T00:06:23.390Z,5.70
2019-03-11T00:06:57.919Z,5.70
2019-03-11T00:07:32.442Z,5.70
2019-03-11T00:08:06.945Z,5.70
2019-03-11T00:08:41.441Z,5.70
2019-03-11T00:09:15.938Z,5.70
2019-03-11T00:09:50.477Z,5.70
2019-03-11T00:10:25.028Z,5.70
2019-03-11T00:10:59.620Z,5.80
2019-03-11T00:11:34.186Z,5.80
2019-03-11T00:12:08.692Z,5.80
2019-03-11T00:12:43.248Z,5.80
2019-03-11T00:13:17.739Z,5.80
2019-03-11T00:13:52.229Z,5.80
2019-03-11T00:14:26.724Z,5.80
2019-03-11T00:15:01.233Z,5.80
2019-03-11T00:15:35.808Z,5.80
2019-03-11T00:16:10.311Z,5.80
2019-03-11T00:16:44.880Z,5.70
2019-03-11T00:17:19.367Z,5.80
2019-03-11T00:17:53.933Z,5.80
2019-03-11T00:18:28.424Z,5.80
2019-03-11T00:19:02.913Z,5.80
2019-03-11T00:19:37.401Z,5.70
2019-03-11T00:20:12.207Z,5.80
2019-03-11T00:20:46.697Z,5.80
2019-03-11T00:21:21.219Z,5.80
2019-03-11T00:21:55.713Z,5.80
2019-03-11T00:22:30.214Z,5.80
2019-03-11T00:23:05.025Z,5.80
2019-03-11T00:23:39.531Z,5.80
2019-03-11T00:24:14.101Z,5.80
2019-03-11T00:24:48.947Z,5.80
2019-03-11T00:25:23.521Z,5.80
2019-03-11T00:25:58.011Z,5.90
2019-03-11T00:26:32.520Z,5.90
2019-03-11T00:27:07.009Z,5.90
2019-03-11T00:27:41.512Z,5.90
2019-03-11T00:28:17.060Z,6.00
2019-03-11T00:28:51.553Z,5.90
2019-03-11T00:29:26.110Z,5.90
2019-03-11T00:30:00.975Z,5.90
2019-03-11T00:30:35.468Z,5.90
2019-03-11T00:31:09.955Z,5.90
2019-03-11T00:31:44.459Z,6.00
2019-03-11T00:32:19.034Z,5.90
2019-03-11T00:32:53.653Z,5.90
2019-03-11T00:33:28.156Z,5.90
2019-03-11T00:34:02.645Z,5.90
2019-03-11T00:34:37.201Z,5.90
2019-03-11T00:35:11.779Z,5.80
2019-03-11T00:35:46.284Z,5.80
2019-03-11T00:36:20.768Z,5.80
2019-03-11T00:36:55.677Z,5.80
2019-03-11T00:37:30.168Z,5.80
2019-03-11T00:38:04.730Z,5.80
2019-03-11T00:38:39.302Z,5.80
2019-03-11T00:39:13.789Z,5.80
2019-03-11T00:39:48.284Z,5.80
2019-03-11T00:40:22.933Z,5.70
2019-03-11T00:40:57.429Z,5.70
2019-03-11T00:41:31.934Z,5.70
2019-03-11T00:42:06.501Z,5.70
2019-03-11T00:42:40.994Z,5.80
2019-03-11T00:43:15.645Z,5.80
2019-03-11T00:43:51.257Z,5.70
2019-03-11T00:44:25.759Z,5.70
2019-03-11T00:45:00.332Z,5.70
2019-03-11T00:45:35.168Z,5.70
2019-03-11T00:46:09.738Z,5.80
2019-03-11T00:46:44.309Z,5.80
2019-03-11T00:47:18.796Z,5.70
2019-03-11T00:48:01.306Z,5.70
2019-03-11T00:48:29.472Z,5.70
2019-03-11T00:49:04.000Z,5.70
2019-03-11T00:49:38.488Z,5.70
2019-03-11T00:50:13.521Z,5.70
2019-03-11T00:50:48.082Z,5.80
2019-03-11T00:51:22.570Z,5.80
2019-03-11T00:51:57.061Z,5.80
2019-03-11T00:52:31.627Z,5.90
2019-03-11T00:53:06.326Z,5.80
2019-03-11T00:53:40.809Z,5.80
2019-03-11T00:54:15.304Z,5.80
2019-03-11T00:54:49.805Z,5.80
2019-03-11T00:55:24.292Z,5.80
2019-03-11T00:55:58.813Z,5.80
2019-03-11T00:56:33.378Z,5.80
2019-03-11T00:57:07.871Z,5.80
2019-03-11T00:57:42.636Z,5.80
2019-03-11T00:58:17.137Z,5.80
2019-03-11T00:58:51.635Z,5.70
2019-03-11T00:59:26.162Z,5.70
2019-03-11T01:00:00.698Z,5.80
2019-03-11T01:00:37.397Z,5.80
2019-03-11T01:01:11.936Z,5.80
2019-03-11T01:01:46.453Z,5.80
2019-03-11T01:02:21.269Z,5.80
2019-03-11T01:02:55.821Z,5.80
2019-03-11T01:03:30.314Z,5.80
2019-03-11T01:04:04.932Z,5.80
2019-03-11T01:04:39.426Z,5.70
2019-03-11T01:05:14.700Z,5.80
2019-03-11T01:05:49.218Z,5.80
2019-03-11T01:06:23.785Z,5.80
2019-03-11T01:06:58.345Z,5.80
2019-03-11T01:07:32.837Z,5.80
2019-03-11T01:08:07.489Z,5.80
2019-03-11T01:08:41.981Z,5.80
2019-03-11T01:09:16.624Z,5.80
2019-03-11T01:09:51.183Z,5.80
2019-03-11T01:10:25.995Z,5.80
2019-03-11T01:11:00.546Z,5.80
2019-03-11T01:11:35.160Z,5.80
2019-03-11T01:12:09.664Z,5.80
2019-03-11T01:12:44.200Z,5.70
2019-03-11T01:13:18.706Z,5.70
2019-03-11T01:13:53.204Z,5.70
2019-03-11T01:14:27.694Z,5.70
2019-03-11T01:15:02.198Z,5.70
2019-03-11T01:15:36.737Z,5.80
2019-03-11T01:16:11.534Z,5.70
2019-03-11T01:16:46.033Z,5.70
2019-03-11T01:17:20.542Z,5.70
2019-03-11T01:17:55.113Z,5.70
2019-03-11T01:18:29.985Z,5.70
2019-03-11T01:19:04.536Z,5.80
2019-03-11T01:19:39.127Z,5.80
2019-03-11T01:20:13.696Z,5.70
2019-03-11T01:20:48.205Z,5.70
2019-03-11T01:21:22.762Z,5.70
2019-03-11T01:21:57.267Z,5.70
2019-03-11T01:22:31.899Z,5.70
2019-03-11T01:23:06.413Z,5.70
2019-03-11T01:23:40.981Z,5.70
2019-03-11T01:24:15.510Z,5.70
2019-03-11T01:24:50.036Z,5.70
2019-03-11T01:25:24.520Z,5.80
2019-03-11T01:25:59.027Z,5.70
2019-03-11T01:26:33.541Z,5.70
2019-03-11T01:27:08.080Z,5.80
2019-03-11T01:27:42.661Z,5.70
2019-03-11T01:28:17.266Z,5.70
2019-03-11T01:28:51.761Z,5.70
2019-03-11T01:29:26.259Z,5.70
2019-03-11T01:30:00.746Z,5.80
2019-03-11T01:30:35.253Z,5.70
2019-03-11T01:31:09.750Z,5.80
2019-03-11T01:31:44.258Z,5.80
2019-03-11T01:32:18.746Z,5.80
2019-03-11T01:32:53.273Z,5.70
2019-03-11T01:33:27.770Z,5.70
2019-03-11T01:34:02.671Z,5.70
2019-03-11T01:34:37.156Z,5.70
2019-03-11T01:35:11.710Z,5.70
2019-03-11T01:35:46.235Z,5.70
2019-03-11T01:36:20.720Z,5.70
2019-03-11T01:36:55.213Z,5.70
2019-03-11T01:37:29.697Z,5.70
2019-03-11T01:38:04.194Z,5.70
2019-03-11T01:38:38.742Z,5.70
2019-03-11T01:39:13.242Z,5.70
2019-03-11T01:39:47.751Z,5.70
2019-03-11T01:40:22.287Z,5.60
2019-03-11T01:40:56.851Z,5.70
2019-03-11T01:41:31.402Z,5.70
2019-03-11T01:42:05.959Z,5.70
2019-03-11T01:42:40.458Z,5.70
2019-03-11T01:43:14.959Z,5.60
2019-03-11T01:43:49.529Z,5.60
2019-03-11T01:44:24.024Z,5.60
2019-03-11T01:44:58.517Z,5.60
2019-03-11T01:45:33.124Z,5.60
2019-03-11T01:46:07.686Z,5.60
2019-03-11T01:46:44.957Z,5.60
2019-03-11T01:47:19.501Z,5.60
2019-03-11T01:47:54.083Z,5.60
2019-03-11T01:48:28.580Z,5.60
2019-03-11T01:49:03.139Z,5.60
2019-03-11T01:49:37.699Z,5.60
2019-03-11T01:50:15.989Z,5.60
2019-03-11T01:50:50.562Z,5.60
2019-03-11T01:51:25.059Z,5.60
2019-03-11T01:51:59.580Z,5.60
2019-03-11T01:52:34.075Z,5.60
2019-03-11T01:53:08.573Z,5.60
2019-03-11T01:53:43.104Z,5.60
2019-03-11T01:54:17.584Z,5.60
2019-03-11T01:54:52.073Z,5.60
2019-03-11T01:55:26.591Z,5.60
2019-03-11T01:56:01.384Z,5.60
2019-03-11T01:56:36.221Z,5.60
2019-03-11T01:57:10.732Z,5.50
2019-03-11T01:57:45.239Z,5.60
2019-03-11T01:58:19.751Z,5.50
2019-03-11T01:58:54.304Z,5.50
2019-03-11T01:59:28.801Z,5.60
2019-03-11T02:00:05.798Z,5.50
2019-03-11T02:00:40.300Z,5.50
2019-03-11T02:01:14.785Z,5.50
2019-03-11T02:01:49.308Z,5.50
2019-03-11T02:02:23.803Z,5.50
2019-03-11T02:02:58.500Z,5.50
2019-03-11T02:03:33.063Z,5.50
2019-03-11T02:04:07.715Z,5.50
2019-03-11T02:04:42.330Z,5.60
2019-03-11T02:05:16.878Z,5.50
2019-03-11T02:05:51.360Z,5.60
2019-03-11T02:06:25.862Z,5.50
2019-03-11T02:07:00.371Z,5.50
2019-03-11T02:07:34.997Z,5.50
2019-03-11T02:08:09.474Z,5.50
2019-03-11T02:08:43.972Z,5.50
2019-03-11T02:09:19.113Z,5.50
2019-03-11T02:09:53.723Z,5.50
2019-03-11T02:10:28.681Z,5.50
2019-03-11T02:11:03.182Z,5.50
2019-03-11T02:11:38.267Z,5.50
2019-03-11T02:12:12.877Z,5.50
2019-03-11T02:12:48.732Z,5.50
2019-03-11T02:13:23.339Z,5.40
2019-03-11T02:13:57.848Z,5.50
2019-03-11T02:14:32.418Z,5.50
2019-03-11T02:15:13.029Z,5.50
2019-03-11T02:15:47.524Z,5.50
2019-03-11T02:16:22.102Z,5.50
2019-03-11T02:16:56.611Z,5.50
2019-03-11T02:17:31.110Z,5.50
2019-03-11T02:18:05.675Z,5.50
2019-03-11T02:18:40.238Z,5.40
2019-03-11T02:19:14.745Z,5.40
2019-03-11T02:19:49.241Z,5.40
2019-03-11T02:20:23.730Z,5.40
2019-03-11T02:20:58.217Z,5.40
2019-03-11T02:21:32.709Z,5.40
2019-03-11T02:22:07.226Z,5.30
2019-03-11T02:22:41.834Z,5.40
2019-03-11T02:23:16.321Z,5.40
2019-03-11T02:23:50.902Z,5.40
2019-03-11T02:24:25.439Z,5.40
2019-03-11T02:24:59.969Z,5.40
2019-03-11T02:25:34.581Z,5.40
2019-03-11T02:26:09.079Z,5.40
2019-03-11T02:26:43.579Z,5.40
2019-03-11T02:27:18.091Z,5.40
2019-03-11T02:27:52.644Z,5.40
2019-03-11T02:28:27.237Z,5.40
2019-03-11T02:29:01.858Z,5.40
2019-03-11T02:29:36.434Z,5.40
2019-03-11T02:30:13.614Z,5.40
2019-03-11T02:30:48.131Z,5.40
2019-03-11T02:31:22.622Z,5.40
2019-03-11T02:31:57.226Z,5.40
2019-03-11T02:32:32.148Z,5.40
2019-03-11T02:33:06.662Z,5.40
2019-03-11T02:33:41.181Z,5.40
2019-03-11T02:34:15.749Z,5.30
2019-03-11T02:34:50.302Z,5.40
2019-03-11T02:35:31.252Z,5.30
2019-03-11T02:36:06.085Z,5.30
2019-03-11T02:36:42.403Z,5.30
2019-03-11T02:37:16.958Z,5.30
2019-03-11T02:37:51.529Z,5.30
2019-03-11T02:38:26.178Z,5.30
2019-03-11T02:39:00.667Z,5.30
2019-03-11T02:39:35.199Z,5.30
2019-03-11T02:40:14.508Z,5.30
2019-03-11T02:40:49.047Z,5.30
2019-03-11T02:41:23.946Z,5.30
2019-03-11T02:41:58.951Z,5.30
2019-03-11T02:42:33.517Z,5.30
2019-03-11T02:43:08.016Z,5.30
2019-03-11T02:43:42.577Z,5.20
2019-03-11T02:44:17.253Z,5.20
2019-03-11T02:44:51.772Z,5.20
2019-03-11T02:45:26.392Z,5.30
2019-03-11T02:46:00.918Z,5.30
2019-03-11T02:46:35.426Z,5.30
2019-03-11T02:47:09.982Z,5.30
2019-03-11T02:47:44.649Z,5.30
2019-03-11T02:48:19.154Z,5.20
2019-03-11T02:48:53.648Z,5.20
2019-03-11T02:49:28.143Z,5.20
2019-03-11T02:50:02.635Z,5.20
2019-03-11T02:50:37.205Z,5.20
2019-03-11T02:51:11.703Z,5.20
2019-03-11T02:51:46.308Z,5.20
2019-03-11T02:52:20.852Z,5.20
2019-03-11T02:52:55.406Z,5.20
2019-03-11T02:53:29.888Z,5.20
2019-03-11T02:54:04.389Z,5.20
2019-03-11T02:54:38.905Z,5.20
2019-03-11T02:55:13.402Z,5.20
2019-03-11T02:55:50.909Z,5.20
2019-03-11T02:56:24.370Z,5.10
2019-03-11T02:56:58.854Z,5.20
2019-03-11T02:57:33.373Z,5.20
2019-03-11T02:58:07.945Z,5.20
2019-03-11T02:58:42.597Z,5.10
2019-03-11T02:59:17.080Z,5.10
2019-03-11T02:59:51.611Z,5.10
2019-03-11T03:00:26.354Z,5.10
2019-03-11T03:01:08.631Z,5.10
2019-03-11T03:01:47.648Z,5.20
2019-03-11T03:02:23.798Z,5.10
2019-03-11T03:03:02.978Z,5.20
2019-03-11T03:03:39.198Z,5.10
2019-03-11T03:04:15.681Z,5.10
2019-03-11T03:04:51.810Z,5.10
2019-03-11T03:05:33.520Z,5.10
2019-03-11T03:06:09.657Z,5.10
2019-03-11T03:06:44.153Z,5.10
2019-03-11T03:07:18.722Z,5.10
2019-03-11T03:07:53.280Z,5.10
2019-03-11T03:08:27.794Z,5.10
2019-03-11T03:09:02.290Z,5.10
2019-03-11T03:09:36.812Z,5.10
2019-03-11T03:10:11.694Z,5.10
2019-03-11T03:10:46.267Z,5.10
2019-03-11T03:11:20.757Z,5.10
2019-03-11T03:11:55.251Z,5.10
2019-03-11T03:12:29.827Z,5.10
2019-03-11T03:13:04.366Z,5.10
2019-03-11T03:13:38.872Z,5.10
2019-03-11T03:14:13.442Z,5.10
2019-03-11T03:14:47.927Z,5.10
2019-03-11T03:15:22.442Z,5.10
2019-03-11T03:15:56.935Z,5.10
2019-03-11T03:16:31.423Z,5.10
2019-03-11T03:17:05.912Z,5.10
2019-03-11T03:17:40.399Z,5.10
2019-03-11T03:18:14.910Z,5.10
2019-03-11T03:18:49.419Z,5.10
2019-03-11T03:19:24.106Z,5.10
2019-03-11T03:19:58.730Z,5.10
2019-03-11T03:20:33.224Z,5.10
2019-03-11T03:21:07.801Z,5.10
2019-03-11T03:21:42.298Z,5.10
2019-03-11T03:22:16.783Z,5.10
2019-03-11T03:22:51.379Z,5.10
2019-03-11T03:23:25.943Z,5.10
2019-03-11T03:24:04.810Z,5.10
2019-03-11T03:24:39.461Z,5.10
2019-03-11T03:25:14.647Z,5.10
2019-03-11T03:25:49.245Z,5.10
2019-03-11T03:26:23.735Z,5.20
2019-03-11T03:26:58.242Z,5.10
2019-03-11T03:27:32.838Z,5.10
2019-03-11T03:28:07.754Z,5.10
2019-03-11T03:28:42.376Z,5.10
2019-03-11T03:29:16.906Z,5.10
2019-03-11T03:29:51.754Z,5.10
2019-03-11T03:30:26.326Z,5.10
2019-03-11T03:31:00.936Z,5.10
2019-03-11T03:31:35.574Z,5.00
2019-03-11T03:32:10.077Z,5.10
2019-03-11T03:32:44.850Z,5.00
2019-03-11T03:33:19.409Z,5.00
2019-03-11T03:33:53.982Z,5.10
2019-03-11T03:34:28.635Z,5.10
2019-03-11T03:35:04.167Z,5.10
2019-03-11T03:35:38.745Z,5.10
2019-03-11T03:36:13.343Z,5.00
2019-03-11T03:36:47.839Z,5.00
2019-03-11T03:37:22.410Z,5.00
2019-03-11T03:37:56.911Z,5.00
2019-03-11T03:38:31.753Z,5.00
2019-03-11T03:39:07.699Z,5.00
2019-03-11T03:39:42.271Z,5.00
2019-03-11T03:40:17.230Z,5.10
2019-03-11T03:40:51.766Z,5.00
2019-03-11T03:41:26.393Z,5.10
2019-03-11T03:42:00.918Z,5.10
2019-03-11T03:42:35.544Z,5.10
2019-03-11T03:43:10.049Z,5.00
2019-03-11T03:43:44.534Z,5.10
2019-03-11T03:44:19.021Z,5.00
2019-03-11T03:45:21.719Z,5.10
2019-03-11T03:45:56.294Z,5.10
2019-03-11T03:46:30.840Z,5.10
2019-03-11T03:47:05.412Z,5.10
2019-03-11T03:47:40.029Z,5.10
2019-03-11T03:48:14.663Z,5.00
2019-03-11T03:48:49.247Z,5.00
2019-03-11T03:49:23.944Z,5.00
2019-03-11T03:49:58.523Z,5.00
2019-03-11T03:50:35.853Z,5.00
2019-03-11T03:51:10.402Z,5.00
2019-03-11T03:51:44.913Z,5.00
2019-03-11T03:52:19.478Z,5.00
2019-03-11T03:52:54.041Z,5.00
2019-03-11T03:53:28.748Z,5.00
2019-03-11T03:54:03.417Z,5.00
2019-03-11T03:54:39.927Z,5.00
2019-03-11T03:55:14.514Z,5.00
2019-03-11T03:55:49.066Z,5.00
2019-03-11T03:56:23.561Z,5.00
2019-03-11T03:56:58.126Z,5.00
2019-03-11T03:57:32.692Z,5.00
2019-03-11T03:58:07.196Z,5.00
2019-03-11T03:58:41.774Z,5.00
2019-03-11T03:59:16.295Z,5.00
2019-03-11T03:59:50.859Z,5.00
2019-03-11T04:00:25.353Z,5.00
2019-03-11T04:00:59.914Z,5.00
2019-03-11T04:01:34.398Z,5.00
2019-03-11T04:02:08.957Z,5.00
2019-03-11T04:02:43.758Z,5.00
2019-03-11T04:03:18.387Z,5.00
2019-03-11T04:03:52.935Z,5.10
2019-03-11T04:04:27.458Z,5.10
2019-03-11T04:05:01.953Z,5.10
2019-03-11T04:05:36.532Z,5.10
2019-03-11T04:06:11.077Z,5.10
2019-03-11T04:06:45.569Z,5.10
2019-03-11T04:07:20.332Z,5.00
2019-03-11T04:07:54.827Z,5.00
2019-03-11T04:08:29.333Z,5.00
2019-03-11T04:09:04.642Z,5.00
2019-03-11T04:09:39.170Z,5.00
2019-03-11T04:10:18.286Z,5.10
2019-03-11T04:10:52.845Z,5.10
2019-03-11T04:11:27.419Z,5.10
2019-03-11T04:12:01.977Z,5.20
2019-03-11T04:12:36.478Z,5.20
2019-03-11T04:13:11.094Z,5.20
2019-03-11T04:13:45.583Z,5.20
2019-03-11T04:14:20.102Z,5.20
2019-03-11T04:14:54.716Z,5.20
2019-03-11T04:15:29.320Z,5.20
2019-03-11T04:16:03.848Z,5.20
2019-03-11T04:16:38.348Z,5.20
2019-03-11T04:17:12.928Z,5.20
2019-03-11T04:17:47.555Z,5.20
2019-03-11T04:18:23.166Z,5.20
2019-03-11T04:18:57.723Z,5.30
2019-03-11T04:19:32.215Z,5.30
2019-03-11T04:20:15.136Z,5.30
2019-03-11T04:20:49.870Z,5.30
2019-03-11T04:21:24.461Z,5.30
2019-03-11T04:21:59.094Z,5.20
2019-03-11T04:22:33.678Z,5.20
2019-03-11T04:23:08.418Z,5.20
2019-03-11T04:23:42.984Z,5.20
2019-03-11T04:24:17.491Z,5.30
2019-03-11T04:24:52.056Z,5.30
2019-03-11T04:25:28.180Z,5.30
2019-03-11T04:26:03.040Z,5.30
2019-03-11T04:26:37.630Z,5.30
2019-03-11T04:27:12.259Z,5.30
2019-03-11T04:27:46.926Z,5.30
2019-03-11T04:28:21.719Z,5.30
2019-03-11T04:28:56.509Z,5.30
2019-03-11T04:29:31.109Z,5.30
2019-03-11T04:30:09.338Z,5.30
2019-03-11T04:30:43.846Z,5.30
2019-03-11T04:31:18.328Z,5.30
2019-03-11T04:31:52.825Z,5.30
2019-03-11T04:32:27.400Z,5.30
2019-03-11T04:33:01.998Z,5.30
2019-03-11T04:33:36.492Z,5.30
2019-03-11T04:34:10.989Z,5.30
2019-03-11T04:34:45.530Z,5.30
2019-03-11T04:35:20.028Z,5.30
2019-03-11T04:35:54.594Z,5.40
2019-03-11T04:36:29.075Z,5.40
2019-03-11T04:37:03.575Z,5.40
2019-03-11T04:37:38.132Z,5.40
2019-03-11T04:38:12.637Z,5.50
2019-03-11T04:38:47.472Z,5.50
2019-03-11T04:39:21.968Z,5.50
2019-03-11T04:39:56.475Z,5.50
2019-03-11T04:40:30.959Z,5.50
2019-03-11T04:41:05.623Z,5.40
2019-03-11T04:41:40.189Z,5.40
2019-03-11T04:42:14.683Z,5.40
2019-03-11T04:42:49.245Z,5.30
2019-03-11T04:43:23.820Z,5.30
2019-03-11T04:43:58.305Z,5.30
2019-03-11T04:44:32.792Z,5.30
2019-03-11T04:45:12.355Z,5.30
2019-03-11T04:45:46.837Z,5.30
2019-03-11T04:46:21.346Z,5.30
2019-03-11T04:46:55.902Z,5.30
2019-03-11T04:47:30.392Z,5.30
2019-03-11T04:48:04.980Z,5.30
2019-03-11T04:48:39.539Z,5.30
2019-03-11T04:49:14.040Z,5.30
2019-03-11T04:49:48.529Z,5.20
2019-03-11T04:50:23.026Z,5.20
2019-03-11T04:50:57.513Z,5.20
2019-03-11T04:51:31.997Z,5.20
2019-03-11T04:52:06.510Z,5.20
2019-03-11T04:52:40.997Z,5.20
2019-03-11T04:53:15.578Z,5.20
2019-03-11T04:53:50.154Z,5.20
2019-03-11T04:54:24.696Z,5.30
2019-03-11T04:54:59.586Z,5.30
2019-03-11T04:55:34.147Z,5.30
2019-03-11T04:56:08.714Z,5.30
2019-03-11T04:56:43.518Z,5.30
2019-03-11T04:57:18.018Z,5.30
2019-03-11T04:57:54.414Z,5.20
2019-03-11T04:58:28.969Z,5.30
2019-03-11T04:59:11.185Z,5.30
2019-03-11T04:59:45.683Z,5.30
2019-03-11T05:00:28.595Z,5.30
2019-03-11T05:01:03.101Z,5.30
2019-03-11T05:01:37.651Z,5.30
2019-03-11T05:02:12.141Z,5.30
2019-03-11T05:02:46.665Z,5.30
2019-03-11T05:03:21.224Z,5.30
2019-03-11T05:03:55.795Z,5.30
2019-03-11T05:04:30.395Z,5.30
2019-03-11T05:05:06.127Z,5.30
2019-03-11T05:05:40.690Z,5.30
2019-03-11T05:06:15.214Z,5.40
2019-03-11T05:06:49.768Z,5.40
2019-03-11T05:07:24.281Z,5.40
2019-03-11T05:07:58.880Z,5.40
2019-03-11T05:08:34.956Z,5.40
2019-03-11T05:09:09.523Z,5.40
2019-03-11T05:09:44.029Z,5.40
2019-03-11T05:10:18.939Z,5.40
2019-03-11T05:10:53.461Z,5.40
2019-03-11T05:11:28.035Z,5.40
2019-03-11T05:12:02.624Z,5.40
2019-03-11T05:12:37.146Z,5.40
2019-03-11T05:13:11.698Z,5.40
2019-03-11T05:13:46.181Z,5.50
2019-03-11T05:14:20.674Z,5.50
2019-03-11T05:14:55.168Z,5.50
2019-03-11T05:15:29.663Z,5.40
2019-03-11T05:16:04.186Z,5.50
2019-03-11T05:16:38.955Z,5.40
2019-03-11T05:17:13.510Z,5.40
2019-03-11T05:17:48.714Z,5.50
2019-03-11T05:18:23.491Z,5.50
2019-03-11T05:18:57.985Z,5.50
2019-03-11T05:19:32.563Z,5.50
2019-03-11T05:20:11.996Z,5.50
2019-03-11T05:20:46.575Z,5.50
2019-03-11T05:21:21.086Z,5.50
2019-03-11T05:21:55.585Z,5.50
2019-03-11T05:22:30.088Z,5.50
2019-03-11T05:23:04.654Z,5.50
2019-03-11T05:23:39.226Z,5.50
2019-03-11T05:24:13.725Z,5.50
2019-03-11T05:24:48.229Z,5.50
2019-03-11T05:25:22.717Z,5.50
2019-03-11T05:25:57.205Z,5.40
2019-03-11T05:26:31.766Z,5.50
2019-03-11T05:27:06.254Z,5.40
2019-03-11T05:27:41.088Z,5.40
2019-03-11T05:28:15.585Z,5.40
2019-03-11T05:28:50.147Z,5.40
2019-03-11T05:29:24.710Z,5.40
2019-03-11T05:29:59.207Z,5.40
2019-03-11T05:30:33.697Z,5.40
2019-03-11T05:31:08.336Z,5.50
2019-03-11T05:31:42.906Z,5.40
2019-03-11T05:32:17.409Z,5.40
2019-03-11T05:32:51.995Z,5.40
2019-03-11T05:33:26.489Z,5.40
2019-03-11T05:34:01.111Z,5.40
2019-03-11T05:34:35.712Z,5.40
2019-03-11T05:35:10.289Z,5.50
2019-03-11T05:35:44.791Z,5.50
2019-03-11T05:36:19.342Z,5.50
2019-03-11T05:36:53.845Z,5.50
2019-03-11T05:37:28.500Z,5.50
2019-03-11T05:38:03.003Z,5.60
2019-03-11T05:38:37.617Z,5.60
2019-03-11T05:39:12.184Z,5.60
2019-03-11T05:39:46.692Z,5.60
2019-03-11T05:40:21.927Z,5.60
2019-03-11T05:40:56.435Z,5.60
2019-03-11T05:41:50.270Z,5.60
2019-03-11T05:42:24.763Z,5.60
2019-03-11T05:42:59.261Z,5.60
2019-03-11T05:43:33.856Z,5.60
2019-03-11T05:44:08.378Z,5.60
2019-03-11T05:44:43.242Z,5.50
2019-03-11T05:45:18.597Z,5.60
2019-03-11T05:45:53.281Z,5.60
2019-03-11T05:46:27.829Z,5.50
2019-03-11T05:47:02.328Z,5.50
2019-03-11T05:47:36.816Z,5.60
2019-03-11T05:48:11.358Z,5.60
2019-03-11T05:48:45.845Z,5.50
2019-03-11T05:49:20.350Z,5.50
2019-03-11T05:49:54.909Z,5.60
2019-03-11T05:50:29.445Z,5.60
2019-03-11T05:51:04.009Z,5.60
2019-03-11T05:51:38.496Z,5.60
2019-03-11T05:52:12.987Z,5.60
2019-03-11T05:52:47.536Z,5.60
2019-03-11T05:53:22.105Z,5.60
2019-03-11T05:53:56.595Z,5.60
2019-03-11T05:54:31.100Z,5.60
2019-03-11T05:55:06.730Z,5.60
2019-03-11T05:55:41.279Z,5.60
2019-03-11T05:56:15.825Z,5.60
2019-03-11T05:56:50.418Z,5.60
2019-03-11T05:57:24.946Z,5.60
2019-03-11T05:57:59.460Z,5.60
2019-03-11T05:58:33.954Z,5.60
2019-03-11T05:59:08.458Z,5.60
2019-03-11T05:59:43.034Z,5.60
2019-03-11T06:00:20.591Z,5.60
2019-03-11T06:00:55.141Z,5.70
2019-03-11T06:01:29.639Z,5.70
2019-03-11T06:02:04.633Z,5.70
2019-03-11T06:02:39.122Z,5.70
2019-03-11T06:03:13.625Z,5.70
2019-03-11T06:03:48.216Z,5.70
2019-03-11T06:04:22.776Z,5.70
2019-03-11T06:04:57.282Z,5.70
2019-03-11T06:05:31.846Z,5.60
2019-03-11T06:06:06.371Z,5.70
2019-03-11T06:06:40.932Z,5.70
2019-03-11T06:07:15.495Z,5.70
2019-03-11T06:07:50.109Z,5.70
2019-03-11T06:08:24.599Z,5.70
2019-03-11T06:08:59.086Z,5.70
2019-03-11T06:09:33.624Z,5.70
2019-03-11T06:10:11.126Z,5.70
2019-03-11T06:10:45.624Z,5.70
2019-03-11T06:11:20.122Z,5.70
2019-03-11T06:11:54.673Z,5.70
2019-03-11T06:12:29.621Z,5.70
2019-03-11T06:13:04.188Z,5.70
2019-03-11T06:13:39.017Z,5.70
2019-03-11T06:14:13.508Z,5.70
2019-03-11T06:14:48.069Z,5.70
2019-03-11T06:15:22.560Z,5.80
2019-03-11T06:15:57.232Z,5.70
2019-03-11T06:16:31.813Z,5.70
2019-03-11T06:17:06.392Z,5.80
2019-03-11T06:17:41.023Z,5.80
2019-03-11T06:18:17.295Z,5.80
2019-03-11T06:18:51.870Z,5.80
2019-03-11T06:19:26.511Z,5.70
2019-03-11T06:20:02.730Z,5.80
2019-03-11T06:20:38.875Z,5.80
2019-03-11T06:21:15.081Z,5.80
2019-03-11T06:21:51.289Z,5.80
2019-03-11T06:22:25.809Z,5.80
2019-03-11T06:23:02.048Z,5.90
2019-03-11T06:23:36.608Z,5.80
2019-03-11T06:24:11.105Z,5.80
2019-03-11T06:24:45.670Z,5.80
2019-03-11T06:25:20.365Z,5.80
2019-03-11T06:25:54.921Z,5.80
2019-03-11T06:26:29.425Z,5.80
2019-03-11T06:27:04.162Z,5.80
2019-03-11T06:27:38.720Z,5.80
2019-03-11T06:28:13.238Z,5.80
2019-03-11T06:28:47.890Z,5.90
2019-03-11T06:29:30.091Z,5.80
2019-03-11T06:29:58.696Z,5.80
2019-03-11T06:30:33.462Z,5.80
2019-03-11T06:31:08.251Z,5.80
2019-03-11T06:31:42.873Z,5.90
2019-03-11T06:32:17.385Z,5.80
2019-03-11T06:32:51.892Z,5.90
2019-03-11T06:33:28.182Z,5.90
2019-03-11T06:34:02.755Z,5.90
2019-03-11T06:34:37.349Z,5.90
2019-03-11T06:35:12.021Z,5.90
2019-03-11T06:35:46.537Z,5.90
2019-03-11T06:36:26.054Z,5.90
2019-03-11T06:37:00.543Z,5.90
2019-03-11T06:37:35.068Z,5.90
2019-03-11T06:38:09.862Z,5.90
2019-03-11T06:38:44.432Z,5.90
2019-03-11T06:39:18.934Z,5.90
2019-03-11T06:39:53.506Z,5.90
2019-03-11T06:40:28.127Z,5.90
2019-03-11T06:41:02.610Z,5.90
2019-03-11T06:41:37.121Z,5.90
2019-03-11T06:42:11.642Z,5.90
2019-03-11T06:42:46.133Z,5.90
2019-03-11T06:43:20.685Z,5.90
2019-03-11T06:43:55.273Z,5.90
2019-03-11T06:44:29.838Z,5.90
2019-03-11T06:45:06.044Z,5.80
2019-03-11T06:45:40.540Z,5.70
2019-03-11T06:46:15.134Z,5.70
2019-03-11T06:46:49.701Z,5.70
2019-03-11T06:47:24.201Z,5.70
2019-03-11T06:47:58.753Z,5.60
2019-03-11T06:48:33.255Z,5.60
2019-03-11T06:49:07.741Z,5.50
2019-03-11T06:49:42.258Z,5.50
2019-03-11T06:50:16.800Z,5.50
2019-03-11T06:50:51.350Z,5.40
2019-03-11T06:51:25.854Z,5.40
2019-03-11T06:52:00.360Z,5.40
2019-03-11T06:52:37.993Z,5.40
2019-03-11T06:53:12.510Z,5.40
2019-03-11T06:53:47.066Z,5.30
2019-03-11T06:54:21.621Z,5.30
2019-03-11T06:54:56.226Z,5.20
2019-03-11T06:55:30.785Z,5.20
2019-03-11T06:56:05.676Z,5.20
2019-03-11T06:56:40.195Z,5.20
2019-03-11T06:57:15.103Z,5.10
2019-03-11T06:57:49.665Z,5.00
2019-03-11T06:58:24.179Z,4.90
2019-03-11T06:58:58.733Z,4.90
2019-03-11T06:59:33.215Z,4.80
2019-03-11T07:00:10.803Z,4.80
2019-03-11T07:00:45.357Z,4.70
2019-03-11T07:01:19.944Z,4.70
2019-03-11T07:01:54.439Z,4.60
2019-03-11T07:02:29.015Z,4.50
2019-03-11T07:03:03.533Z,4.40
2019-03-11T07:03:38.022Z,4.30
2019-03-11T07:04:12.521Z,4.30
2019-03-11T07:04:47.117Z,4.20
2019-03-11T07:05:21.653Z,4.10
2019-03-11T07:05:56.252Z,4.10
2019-03-11T07:06:30.734Z,4.00
2019-03-11T07:07:05.232Z,3.90
2019-03-11T07:07:39.743Z,3.80
2019-03-11T07:08:14.221Z,3.70
2019-03-11T07:08:48.799Z,3.60
2019-03-11T07:09:23.304Z,3.60
2019-03-11T07:09:58.198Z,3.60
2019-03-11T07:10:32.737Z,3.50
2019-03-11T07:11:08.173Z,3.50
2019-03-11T07:11:42.661Z,3.40
2019-03-11T07:12:17.237Z,3.40
2019-03-11T07:12:51.812Z,3.30
2019-03-11T07:13:26.326Z,3.30
2019-03-11T07:14:00.918Z,3.30
2019-03-11T07:14:35.429Z,3.20
2019-03-11T07:15:11.541Z,3.20
2019-03-11T07:15:46.094Z,3.20
2019-03-11T07:16:21.898Z,3.10
2019-03-11T07:16:56.465Z,3.00
2019-03-11T07:17:30.963Z,2.90
2019-03-11T07:18:05.522Z,2.90
2019-03-11T07:18:40.054Z,2.90
2019-03-11T07:19:14.538Z,2.90
2019-03-11T07:19:49.032Z,2.80
2019-03-11T07:20:23.686Z,2.70
2019-03-11T07:20:58.173Z,2.50
2019-03-11T07:21:32.661Z,2.40
2019-03-11T07:22:07.357Z,2.30
2019-03-11T07:22:42.212Z,2.30
2019-03-11T07:23:16.722Z,2.30
2019-03-11T07:23:51.225Z,2.20
2019-03-11T07:24:25.795Z,2.20
2019-03-11T07:25:00.509Z,2.20
2019-03-11T07:25:35.189Z,2.20
2019-03-11T07:26:09.673Z,2.10
2019-03-11T07:26:44.180Z,2.20
2019-03-11T07:27:18.722Z,2.10
2019-03-11T07:27:53.206Z,2.10
2019-03-11T07:28:27.794Z,2.10
2019-03-11T07:29:02.293Z,2.10
2019-03-11T07:29:36.779Z,2.10
2019-03-11T07:30:20.684Z,2.10
2019-03-11T07:30:55.174Z,2.00
2019-03-11T07:31:29.803Z,2.00
2019-03-11T07:32:04.296Z,1.90
2019-03-11T07:32:39.045Z,1.90
2019-03-11T07:33:13.642Z,1.90
2019-03-11T07:33:48.205Z,1.80
2019-03-11T07:34:22.774Z,1.80
2019-03-11T07:35:07.644Z,1.70
2019-03-11T07:35:33.434Z,1.70
2019-03-11T07:36:07.954Z,1.60
2019-03-11T07:36:43.367Z,1.60
2019-03-11T07:37:20.763Z,1.50
2019-03-11T07:37:55.102Z,1.40
2019-03-11T07:38:29.628Z,1.40
2019-03-11T07:39:05.181Z,1.30
2019-03-11T07:39:39.697Z,1.40
2019-03-11T07:40:28.459Z,1.40
2019-03-11T07:40:52.911Z,1.40
2019-03-11T07:41:27.485Z,1.40
2019-03-11T07:42:01.992Z,1.30
2019-03-11T07:42:36.528Z,1.30
2019-03-11T07:43:11.062Z,1.30
2019-03-11T07:43:45.616Z,1.30
2019-03-11T07:44:20.117Z,1.30